WRG weather

Wrangell Airport
Wrangell, Alaska, United States

Public forecast

Using degrees Fahrenheit for public forecast. Weather courtesy of forecast.io.

Current aviation weather report (METAR) for Wrangell Airport

Retrieved 2020/08/07 14:56 UTC (44 minutes ago):

PAWG 071456Z 00000KT 10SM -RA OVC046 13/11 A2972

Aviation forecast (TAF) for Wrangell Airport

Retrieved 2020/08/07 12:30 UTC (3 hours ago):

TAF PAWG 071128Z 0712/0812 VRB03KT P6SM -RA FEW020 OVC035 FM071400 11009KT 4SM -RA BR OVC015 WS020/14030KT FM072100 13005KT 6SM -RA OVC035 FM080900 14004KT 6SM -SHRA OVC015 AMD NOT SKED